createdAt,value
2023-08-29T00:02:24.008Z,9.67
2023-08-29T00:04:52.140Z,9.53
2023-08-29T00:07:21.585Z,9.37
2023-08-29T00:09:49.633Z,8.90
2023-08-29T00:12:17.704Z,9.90
2023-08-29T00:14:45.851Z,10.37
2023-08-29T00:17:17.323Z,10.20
2023-08-29T00:19:46.161Z,11.20
2023-08-29T00:22:14.692Z,11.20
2023-08-29T00:24:45.210Z,11.10
2023-08-29T00:27:13.339Z,11.37
2023-08-29T00:29:43.781Z,11.70
2023-08-29T00:32:12.093Z,12.20
2023-08-29T00:34:40.094Z,11.27
2023-08-29T00:37:08.300Z,11.30
2023-08-29T00:39:36.345Z,11.87
2023-08-29T00:42:06.281Z,12.23
2023-08-29T00:44:35.921Z,11.63
2023-08-29T00:47:07.191Z,12.20
2023-08-29T00:49:37.438Z,12.53
2023-08-29T00:52:06.884Z,11.47
2023-08-29T00:54:35.182Z,12.00
2023-08-29T00:57:03.831Z,12.53
2023-08-29T00:59:33.325Z,12.90
2023-08-29T01:02:01.497Z,12.50
2023-08-29T01:04:32.152Z,12.00
2023-08-29T01:07:00.394Z,12.90
2023-08-29T01:09:28.491Z,11.87
2023-08-29T01:12:03.068Z,12.70
2023-08-29T01:14:37.399Z,13.20
2023-08-29T01:17:08.870Z,12.67
2023-08-29T01:19:41.650Z,13.03
2023-08-29T01:22:22.421Z,11.33
2023-08-29T01:24:55.278Z,11.83
2023-08-29T01:27:24.758Z,12.30
2023-08-29T01:29:52.900Z,11.33
2023-08-29T01:32:21.573Z,11.93
2023-08-29T01:34:52.112Z,12.57
2023-08-29T01:37:20.147Z,11.57
2023-08-29T01:39:48.156Z,11.83
2023-08-29T01:42:18.540Z,12.17
2023-08-29T01:44:49.125Z,12.07
2023-08-29T01:47:17.318Z,13.13
2023-08-29T01:49:45.771Z,12.27
2023-08-29T01:52:13.972Z,12.63
2023-08-29T01:54:41.118Z,12.63
2023-08-29T01:57:10.283Z,11.47
2023-08-29T01:59:39.113Z,11.97
2023-08-29T02:02:09.539Z,11.43
2023-08-29T02:04:37.710Z,11.93
2023-08-29T02:07:07.164Z,11.53
2023-08-29T02:09:35.232Z,12.57
2023-08-29T02:12:04.272Z,11.63
2023-08-29T02:14:32.343Z,11.50
2023-08-29T02:17:00.486Z,12.50
2023-08-29T02:19:30.141Z,12.30
2023-08-29T02:21:58.201Z,12.10
2023-08-29T02:24:26.273Z,11.53
2023-08-29T02:26:54.325Z,11.90
2023-08-29T02:29:22.459Z,11.87
2023-08-29T02:31:51.192Z,12.47
2023-08-29T02:34:19.429Z,11.87
2023-08-29T02:36:48.998Z,12.23
2023-08-29T02:39:17.047Z,11.53
2023-08-29T02:41:45.288Z,11.67
2023-08-29T02:44:13.398Z,11.67
2023-08-29T02:46:41.481Z,12.03
2023-08-29T02:49:10.139Z,12.73
2023-08-29T02:51:38.165Z,12.57
2023-08-29T02:54:07.853Z,12.70
2023-08-29T02:56:35.911Z,13.63
2023-08-29T02:59:03.987Z,13.07
2023-08-29T03:01:32.752Z,14.63
2023-08-29T03:04:00.998Z,13.20
2023-08-29T03:06:29.143Z,13.37
2023-08-29T03:08:57.414Z,13.47
2023-08-29T03:11:26.838Z,13.77
2023-08-29T03:13:55.000Z,11.97
2023-08-29T03:16:23.133Z,12.33
2023-08-29T03:18:51.440Z,13.30
2023-08-29T03:21:19.559Z,13.23
2023-08-29T03:23:47.603Z,14.50
2023-08-29T03:26:15.694Z,14.30
2023-08-29T03:28:46.803Z,13.20
2023-08-29T03:31:16.441Z,13.80
2023-08-29T03:33:45.005Z,14.37
2023-08-29T03:36:13.575Z,14.90
2023-08-29T03:38:42.787Z,15.50
2023-08-29T03:41:11.020Z,13.40
2023-08-29T03:43:39.227Z,15.20
2023-08-29T03:46:09.706Z,15.23
2023-08-29T03:48:39.134Z,15.40
2023-08-29T03:51:08.299Z,15.13
2023-08-29T03:53:37.300Z,15.07
2023-08-29T03:56:08.194Z,16.07
2023-08-29T03:58:36.644Z,16.77
2023-08-29T04:01:05.883Z,15.53
2023-08-29T04:03:35.937Z,16.43
2023-08-29T04:06:04.502Z,15.27
2023-08-29T04:08:32.828Z,16.53
2023-08-29T04:11:00.923Z,17.30
2023-08-29T04:13:28.959Z,17.17
2023-08-29T04:15:57.109Z,17.47
2023-08-29T04:18:25.210Z,18.30
2023-08-29T04:20:54.609Z,19.63
2023-08-29T04:23:22.772Z,18.93
2023-08-29T04:25:51.034Z,20.20
2023-08-29T04:28:21.589Z,18.70
2023-08-29T04:30:49.713Z,17.97
2023-08-29T04:33:18.003Z,17.73
2023-08-29T04:35:46.156Z,17.67
2023-08-29T04:38:15.574Z,18.80
2023-08-29T04:40:43.628Z,18.73
2023-08-29T04:43:11.645Z,17.63
2023-08-29T04:45:41.208Z,19.10
2023-08-29T04:48:09.854Z,18.50
2023-08-29T04:50:38.258Z,19.07
2023-08-29T04:53:07.057Z,19.60
2023-08-29T04:55:36.563Z,19.27
2023-08-29T04:58:05.202Z,18.23
2023-08-29T05:00:33.415Z,19.40
2023-08-29T05:03:01.601Z,18.13
2023-08-29T05:05:30.172Z,19.03
2023-08-29T05:07:58.377Z,19.17
2023-08-29T05:10:28.499Z,18.57
2023-08-29T05:12:57.907Z,17.90
2023-08-29T05:15:26.082Z,19.63
2023-08-29T05:17:54.205Z,20.23
2023-08-29T05:20:22.296Z,19.90
2023-08-29T05:22:50.369Z,19.57
2023-08-29T05:25:18.611Z,21.57
2023-08-29T05:27:46.666Z,19.97
2023-08-29T05:30:16.332Z,19.70
2023-08-29T05:32:44.482Z,18.17
2023-08-29T05:35:12.775Z,19.50
2023-08-29T05:37:41.205Z,19.53
2023-08-29T05:40:10.247Z,20.23
2023-08-29T05:42:38.801Z,20.63
2023-08-29T05:45:07.463Z,19.50
2023-08-29T05:47:36.985Z,20.40
2023-08-29T05:50:05.579Z,19.07
2023-08-29T05:52:33.703Z,20.43
2023-08-29T05:55:01.781Z,18.97
2023-08-29T05:57:30.220Z,20.03
2023-08-29T05:59:58.427Z,19.63
2023-08-29T06:02:27.608Z,20.23
2023-08-29T06:04:57.065Z,20.10
2023-08-29T06:07:26.003Z,19.97
2023-08-29T06:09:54.347Z,19.70
2023-08-29T06:12:22.424Z,21.17
2023-08-29T06:14:50.556Z,18.90
2023-08-29T06:17:19.505Z,19.30
2023-08-29T06:19:47.717Z,19.70
2023-08-29T06:22:17.163Z,19.97
2023-08-29T06:24:45.403Z,19.40
2023-08-29T06:27:13.456Z,21.40
2023-08-29T06:29:41.747Z,20.53
2023-08-29T06:32:09.900Z,21.13
2023-08-29T06:34:37.901Z,21.03
2023-08-29T06:37:07.014Z,21.47
2023-08-29T06:39:36.406Z,22.00
2023-08-29T06:42:04.638Z,20.63
2023-08-29T06:44:32.681Z,20.13
2023-08-29T06:47:00.767Z,21.07
2023-08-29T06:49:29.040Z,20.13
2023-08-29T06:51:57.116Z,20.30
2023-08-29T06:54:25.215Z,21.30
2023-08-29T06:56:54.639Z,22.20
2023-08-29T06:59:22.748Z,19.93
2023-08-29T07:01:53.800Z,20.40
2023-08-29T07:04:22.161Z,21.27
2023-08-29T07:06:50.382Z,21.53
2023-08-29T07:09:18.428Z,20.90
2023-08-29T07:11:46.453Z,21.27
2023-08-29T07:14:15.863Z,21.27
2023-08-29T07:16:50.595Z,21.20
2023-08-29T07:19:29.902Z,20.50
2023-08-29T07:21:59.214Z,20.37
2023-08-29T07:24:31.113Z,21.27
2023-08-29T07:26:59.158Z,22.57
2023-08-29T07:29:28.582Z,21.30
2023-08-29T07:31:56.591Z,21.67
2023-08-29T07:34:24.642Z,20.30
2023-08-29T07:36:53.071Z,21.50
2023-08-29T07:39:22.419Z,21.97
2023-08-29T07:41:50.571Z,22.30
2023-08-29T07:44:18.684Z,21.37
2023-08-29T07:47:03.728Z,22.33
2023-08-29T07:49:36.949Z,21.03
2023-08-29T07:52:06.807Z,22.67
2023-08-29T07:54:34.862Z,22.53
2023-08-29T07:57:02.933Z,24.33
2023-08-29T07:59:30.996Z,23.47
2023-08-29T08:02:01.197Z,23.37
2023-08-29T08:04:29.437Z,24.73
2023-08-29T08:06:57.541Z,26.17
2023-08-29T08:09:25.817Z,26.77
2023-08-29T08:11:53.875Z,29.47
2023-08-29T08:14:21.879Z,29.83
2023-08-29T08:16:50.020Z,31.13
2023-08-29T08:19:19.421Z,30.27
2023-08-29T08:21:50.182Z,32.27
2023-08-29T08:24:19.270Z,32.07
2023-08-29T08:26:47.479Z,29.70
2023-08-29T08:29:15.489Z,30.37
2023-08-29T08:31:44.409Z,32.60
2023-08-29T08:34:13.045Z,33.10
2023-08-29T08:36:42.652Z,32.13
2023-08-29T08:39:10.742Z,32.40
2023-08-29T08:41:38.805Z,32.67
2023-08-29T08:44:08.352Z,32.57
2023-08-29T08:46:36.669Z,34.13
2023-08-29T08:49:04.746Z,33.90
2023-08-29T08:51:33.651Z,34.73
2023-08-29T08:54:03.023Z,38.53
2023-08-29T08:56:31.374Z,40.10
2023-08-29T08:58:59.571Z,40.83
2023-08-29T09:01:28.271Z,40.37
2023-08-29T09:03:56.762Z,40.23
2023-08-29T09:06:24.842Z,39.13
2023-08-29T09:08:53.277Z,37.87
2023-08-29T09:11:22.700Z,38.97
2023-08-29T09:13:50.935Z,39.40
2023-08-29T09:16:19.127Z,37.43
2023-08-29T09:18:52.076Z,39.67
2023-08-29T09:21:20.372Z,34.73
2023-08-29T09:23:48.510Z,35.33
2023-08-29T09:26:16.566Z,37.33
2023-08-29T09:28:47.739Z,37.93
2023-08-29T09:31:18.160Z,35.03
2023-08-29T09:33:46.389Z,36.20
2023-08-29T09:36:15.139Z,37.03
2023-08-29T09:38:44.802Z,38.00
2023-08-29T09:41:15.534Z,36.37
2023-08-29T09:43:49.686Z,35.17
2023-08-29T09:46:25.079Z,32.10
2023-08-29T09:48:57.238Z,32.67
2023-08-29T09:51:26.650Z,32.23
2023-08-29T09:53:56.546Z,31.93
2023-08-29T09:56:25.616Z,30.17
2023-08-29T09:58:56.999Z,29.40
2023-08-29T10:01:26.299Z,30.13
2023-08-29T10:03:54.447Z,28.27
2023-08-29T10:06:23.278Z,29.93
2023-08-29T10:08:56.418Z,29.67
2023-08-29T10:11:25.489Z,30.80
2023-08-29T10:13:55.107Z,31.47
2023-08-29T10:16:24.250Z,33.83
2023-08-29T10:18:53.013Z,35.17
2023-08-29T10:21:22.642Z,33.90
2023-08-29T10:23:51.606Z,34.27
2023-08-29T10:26:20.387Z,33.83
2023-08-29T10:28:49.161Z,35.03
2023-08-29T10:31:20.516Z,33.13
2023-08-29T10:33:49.032Z,35.17
2023-08-29T10:36:19.042Z,37.33
2023-08-29T10:38:49.262Z,36.70
2023-08-29T10:41:17.541Z,35.20
2023-08-29T10:43:45.646Z,35.17
2023-08-29T10:46:18.639Z,37.10
2023-08-29T10:48:50.272Z,34.53
2023-08-29T10:51:23.613Z,35.10
2023-08-29T10:53:53.598Z,32.87
2023-08-29T10:56:28.243Z,33.17
2023-08-29T10:58:57.302Z,31.93
2023-08-29T11:01:34.652Z,31.27
2023-08-29T11:04:05.177Z,28.23
2023-08-29T11:06:52.978Z,26.50
2023-08-29T11:09:22.691Z,25.67
2023-08-29T11:12:10.286Z,25.63
2023-08-29T11:14:53.851Z,23.57
2023-08-29T11:17:28.022Z,24.70
2023-08-29T11:19:57.296Z,23.87
2023-08-29T11:22:27.168Z,22.37
2023-08-29T11:24:56.762Z,20.60
2023-08-29T11:27:26.074Z,20.67
2023-08-29T11:30:10.050Z,19.47
2023-08-29T11:32:51.685Z,16.53
2023-08-29T11:35:20.083Z,15.80
2023-08-29T11:37:48.146Z,16.33
2023-08-29T11:40:38.440Z,16.03
2023-08-29T11:43:33.945Z,15.70
2023-08-29T11:46:00.507Z,17.47
2023-08-29T11:48:31.041Z,17.20
2023-08-29T11:51:02.099Z,16.23
2023-08-29T11:53:32.337Z,16.17
2023-08-29T11:56:01.087Z,14.67
2023-08-29T11:58:29.955Z,13.53
2023-08-29T12:00:58.069Z,12.63
2023-08-29T12:03:27.375Z,12.67
2023-08-29T12:05:59.469Z,14.17
2023-08-29T12:08:38.944Z,13.07
2023-08-29T12:11:08.847Z,13.73
2023-08-29T12:13:38.259Z,13.63
2023-08-29T12:16:15.896Z,12.67
2023-08-29T12:18:44.244Z,13.23
2023-08-29T12:21:17.936Z,13.07
2023-08-29T12:23:47.185Z,13.67
2023-08-29T12:26:16.884Z,14.57
2023-08-29T12:28:45.000Z,12.80
2023-08-29T12:31:14.236Z,13.23
2023-08-29T12:33:42.324Z,12.73
2023-08-29T12:36:10.412Z,12.27
2023-08-29T12:38:39.999Z,13.10
2023-08-29T12:41:08.180Z,15.40
2023-08-29T12:43:36.249Z,17.63
2023-08-29T12:46:05.265Z,16.00
2023-08-29T12:48:33.413Z,17.63
2023-08-29T12:51:01.421Z,18.17
2023-08-29T12:53:29.563Z,18.40
2023-08-29T12:55:58.991Z,17.63
2023-08-29T12:58:27.075Z,17.40
2023-08-29T13:00:55.147Z,16.77
2023-08-29T13:03:23.615Z,18.33
2023-08-29T13:05:53.039Z,19.77
2023-08-29T13:08:21.054Z,20.73
2023-08-29T13:10:49.248Z,19.53
2023-08-29T13:13:19.344Z,21.60
2023-08-29T13:15:51.641Z,19.63
2023-08-29T13:18:20.234Z,22.73
2023-08-29T13:20:48.306Z,22.37
2023-08-29T13:23:16.405Z,27.53
2023-08-29T13:25:47.122Z,25.37
2023-08-29T13:28:15.248Z,24.70
2023-08-29T13:30:45.977Z,26.27
2023-08-29T13:33:14.053Z,24.60
2023-08-29T13:35:42.075Z,24.60
2023-08-29T13:38:10.584Z,24.17
2023-08-29T13:40:39.061Z,23.33
2023-08-29T13:43:07.920Z,19.27
2023-08-29T13:45:36.323Z,18.43
2023-08-29T13:48:07.078Z,18.80
2023-08-29T13:50:35.579Z,20.47
2023-08-29T13:53:03.715Z,20.83
2023-08-29T13:55:32.049Z,19.17
2023-08-29T13:58:00.103Z,20.40
2023-08-29T14:00:29.063Z,19.57
2023-08-29T14:02:57.211Z,18.00
2023-08-29T14:05:27.301Z,17.47
2023-08-29T14:07:55.858Z,19.23
2023-08-29T14:10:24.928Z,18.97
2023-08-29T14:12:53.358Z,19.80
2023-08-29T14:15:23.616Z,17.73
2023-08-29T14:17:52.516Z,17.73
2023-08-29T14:20:20.608Z,18.27
2023-08-29T14:22:50.025Z,17.83
2023-08-29T14:25:18.376Z,18.13
2023-08-29T14:27:46.645Z,17.53
2023-08-29T14:30:23.049Z,15.97
2023-08-29T14:32:51.267Z,15.87
2023-08-29T14:35:21.233Z,15.07
2023-08-29T14:37:51.574Z,16.50
2023-08-29T14:40:19.712Z,15.80
2023-08-29T14:42:47.942Z,14.23
2023-08-29T14:45:16.602Z,14.27
2023-08-29T14:47:44.916Z,13.17
2023-08-29T14:50:13.542Z,12.63
2023-08-29T14:52:42.441Z,12.93
2023-08-29T14:55:12.497Z,12.60
2023-08-29T14:57:40.638Z,12.00
2023-08-29T15:00:10.764Z,10.73
2023-08-29T15:02:38.851Z,10.67
2023-08-29T15:05:07.385Z,9.73
2023-08-29T15:07:35.557Z,8.57
2023-08-29T15:10:04.770Z,7.77
2023-08-29T15:12:34.609Z,8.33
2023-08-29T15:15:05.730Z,7.77
2023-08-29T15:17:34.607Z,8.37
2023-08-29T15:20:02.880Z,7.83
2023-08-29T15:22:30.953Z,8.03
2023-08-29T15:24:58.986Z,9.17
2023-08-29T15:27:27.066Z,8.37
2023-08-29T15:29:56.506Z,8.00
2023-08-29T15:32:25.557Z,7.33
2023-08-29T15:34:53.657Z,6.90
2023-08-29T15:37:21.752Z,6.90
2023-08-29T15:39:49.891Z,6.97
2023-08-29T15:42:18.087Z,6.87
2023-08-29T15:44:46.228Z,6.90
2023-08-29T15:47:15.879Z,7.33
2023-08-29T15:49:44.068Z,8.10
2023-08-29T15:52:12.446Z,6.73
2023-08-29T15:54:40.446Z,6.27
2023-08-29T15:57:08.556Z,6.70
2023-08-29T15:59:36.829Z,5.33
2023-08-29T16:02:05.168Z,5.10
2023-08-29T16:04:36.897Z,5.80
2023-08-29T16:07:05.470Z,5.80
2023-08-29T16:09:33.587Z,5.43
2023-08-29T16:12:01.666Z,5.93
2023-08-29T16:14:30.029Z,5.27
2023-08-29T16:16:59.202Z,5.10
2023-08-29T16:19:27.348Z,4.77
2023-08-29T16:21:56.880Z,6.47
2023-08-29T16:24:25.054Z,4.87
2023-08-29T16:26:53.158Z,4.37
2023-08-29T16:29:21.280Z,4.40
2023-08-29T16:31:49.499Z,4.07
2023-08-29T16:34:18.309Z,4.30
2023-08-29T16:36:46.548Z,4.37
2023-08-29T16:39:16.069Z,4.80
2023-08-29T16:41:44.288Z,4.70
2023-08-29T16:44:12.391Z,4.37
2023-08-29T16:46:40.574Z,4.37
2023-08-29T16:49:08.868Z,4.43
2023-08-29T16:51:37.087Z,4.03
2023-08-29T16:54:06.357Z,4.50
2023-08-29T16:56:35.743Z,3.37
2023-08-29T16:59:04.005Z,4.10
2023-08-29T17:01:32.202Z,4.07
2023-08-29T17:04:00.448Z,3.93
2023-08-29T17:06:28.986Z,4.33
2023-08-29T17:08:57.463Z,4.57
2023-08-29T17:11:25.572Z,4.20
2023-08-29T17:13:55.510Z,3.80
2023-08-29T17:16:26.718Z,3.53
2023-08-29T17:18:54.874Z,3.27
2023-08-29T17:21:22.967Z,3.20
2023-08-29T17:23:51.108Z,2.80
2023-08-29T17:26:19.189Z,2.80
2023-08-29T17:28:47.961Z,2.97
2023-08-29T17:31:18.170Z,2.83
2023-08-29T17:33:46.477Z,2.33
2023-08-29T17:36:17.168Z,3.67
2023-08-29T17:38:45.570Z,4.23
2023-08-29T17:41:13.689Z,2.60
2023-08-29T17:43:41.706Z,2.43
2023-08-29T17:46:09.857Z,2.63
2023-08-29T17:48:39.316Z,2.20
2023-08-29T17:51:07.361Z,2.50
2023-08-29T17:53:35.565Z,2.37
2023-08-29T17:56:03.712Z,2.40
2023-08-29T17:58:33.038Z,2.27
2023-08-29T18:01:01.866Z,2.53
2023-08-29T18:03:30.143Z,2.73
2023-08-29T18:06:14.267Z,2.87
2023-08-29T18:08:46.941Z,2.80
2023-08-29T18:11:16.797Z,2.67
2023-08-29T18:13:46.217Z,3.30
2023-08-29T18:16:15.183Z,3.17
2023-08-29T18:18:43.484Z,3.10
2023-08-29T18:21:13.579Z,3.07
2023-08-29T18:23:41.784Z,3.00
2023-08-29T18:26:12.369Z,3.30
2023-08-29T18:28:42.211Z,3.40
2023-08-29T18:31:11.313Z,3.77
2023-08-29T18:33:39.678Z,3.50
2023-08-29T18:36:08.520Z,3.80
2023-08-29T18:38:38.150Z,3.60
2023-08-29T18:41:06.796Z,3.33
2023-08-29T18:43:35.502Z,4.30
2023-08-29T18:46:07.672Z,4.20
2023-08-29T18:48:36.014Z,4.07
2023-08-29T18:51:04.560Z,3.63
2023-08-29T18:53:32.918Z,3.50
2023-08-29T18:56:02.559Z,3.53
2023-08-29T18:58:30.992Z,3.50
2023-08-29T19:00:59.202Z,3.60
2023-08-29T19:03:27.590Z,3.97
2023-08-29T19:05:55.800Z,3.63
2023-08-29T19:08:24.188Z,3.60
2023-08-29T19:10:52.522Z,3.57
2023-08-29T19:13:22.585Z,3.60
2023-08-29T19:15:52.678Z,3.60
2023-08-29T19:18:21.035Z,3.97
2023-08-29T19:20:49.321Z,3.70
2023-08-29T19:23:17.750Z,4.03
2023-08-29T19:25:46.179Z,3.70
2023-08-29T19:28:15.262Z,4.03
2023-08-29T19:30:44.923Z,3.97
2023-08-29T19:33:15.114Z,3.80
2023-08-29T19:35:43.356Z,3.73
2023-08-29T19:38:11.579Z,3.77
2023-08-29T19:40:39.759Z,4.00
2023-08-29T19:43:08.017Z,5.47
2023-08-29T19:45:37.179Z,3.20
2023-08-29T19:48:08.045Z,3.60
2023-08-29T19:50:36.512Z,3.60
2023-08-29T19:53:05.014Z,3.40
2023-08-29T19:55:33.204Z,3.37
2023-08-29T19:58:01.308Z,4.30
2023-08-29T20:00:29.567Z,3.80
2023-08-29T20:02:57.687Z,4.40
2023-08-29T20:05:27.568Z,4.30
2023-08-29T20:07:57.785Z,4.60
2023-08-29T20:10:27.541Z,4.77
2023-08-29T20:12:55.808Z,5.57
2023-08-29T20:15:24.211Z,5.70
2023-08-29T20:17:52.692Z,5.20
2023-08-29T20:20:22.168Z,5.67
2023-08-29T20:22:52.025Z,4.93
2023-08-29T20:25:20.260Z,5.00
2023-08-29T20:27:48.357Z,4.73
2023-08-29T20:30:17.211Z,4.80
2023-08-29T20:32:45.576Z,4.83
2023-08-29T20:35:14.176Z,5.10
2023-08-29T20:37:44.385Z,4.43
2023-08-29T20:40:14.612Z,5.30
2023-08-29T20:42:42.953Z,5.07
2023-08-29T20:45:12.179Z,4.90
2023-08-29T20:47:40.409Z,5.07
2023-08-29T20:50:11.165Z,4.87
2023-08-29T20:52:39.545Z,3.93
2023-08-29T20:55:08.259Z,3.77
2023-08-29T20:57:37.851Z,4.13
2023-08-29T21:00:06.687Z,4.27
2023-08-29T21:02:35.264Z,3.97
2023-08-29T21:05:03.808Z,3.80
2023-08-29T21:07:33.022Z,4.37
2023-08-29T21:10:01.582Z,3.97
2023-08-29T21:12:31.160Z,4.00
2023-08-29T21:15:00.672Z,4.00
2023-08-29T21:17:33.154Z,4.30
2023-08-29T21:20:01.776Z,4.53
2023-08-29T21:22:29.824Z,3.67
2023-08-29T21:24:57.873Z,4.10
2023-08-29T21:27:26.036Z,4.43
2023-08-29T21:29:54.126Z,4.37
2023-08-29T21:32:23.738Z,4.43
2023-08-29T21:34:51.819Z,4.70
2023-08-29T21:37:19.970Z,4.60
2023-08-29T21:39:48.096Z,4.53
2023-08-29T21:42:16.765Z,4.60
2023-08-29T21:44:45.021Z,4.50
2023-08-29T21:47:13.109Z,4.83
2023-08-29T21:49:42.552Z,3.77
2023-08-29T21:52:10.715Z,4.70
2023-08-29T21:54:38.850Z,4.70
2023-08-29T21:57:07.099Z,5.40
2023-08-29T21:59:35.190Z,4.67
2023-08-29T22:02:03.309Z,4.40
2023-08-29T22:04:31.720Z,5.10
2023-08-29T22:07:01.159Z,5.60
2023-08-29T22:09:29.329Z,5.33
2023-08-29T22:11:57.894Z,6.57
2023-08-29T22:14:26.482Z,6.10
2023-08-29T22:16:54.550Z,6.33
2023-08-29T22:19:22.696Z,6.07
2023-08-29T22:21:50.762Z,6.43
2023-08-29T22:24:20.251Z,6.40
2023-08-29T22:26:48.562Z,6.17
2023-08-29T22:29:16.619Z,6.97
2023-08-29T22:31:44.783Z,7.10
2023-08-29T22:34:12.852Z,6.80
2023-08-29T22:36:40.930Z,6.53
2023-08-29T22:39:09.023Z,5.77
2023-08-29T22:41:38.859Z,6.60
2023-08-29T22:44:07.650Z,5.60
2023-08-29T22:46:35.704Z,6.03
2023-08-29T22:49:04.472Z,5.60
2023-08-29T22:51:32.684Z,6.53
2023-08-29T22:54:00.815Z,6.97
2023-08-29T22:56:29.081Z,7.00
2023-08-29T22:58:58.541Z,6.50
2023-08-29T23:01:26.713Z,6.57
2023-08-29T23:03:54.816Z,5.47
2023-08-29T23:06:22.866Z,5.80
2023-08-29T23:08:51.812Z,5.73
2023-08-29T23:11:20.036Z,6.30
2023-08-29T23:13:48.139Z,6.03
2023-08-29T23:16:17.561Z,6.40
2023-08-29T23:18:45.814Z,6.10
2023-08-29T23:21:14.249Z,6.20
2023-08-29T23:23:42.317Z,6.00
2023-08-29T23:26:10.730Z,6.00
2023-08-29T23:28:38.840Z,6.23
2023-08-29T23:31:07.682Z,5.53
2023-08-29T23:33:50.190Z,5.40
2023-08-29T23:36:18.627Z,5.60
2023-08-29T23:38:46.722Z,5.20
2023-08-29T23:41:14.780Z,5.67
2023-08-29T23:43:42.875Z,5.67
2023-08-29T23:46:11.124Z,6.37
2023-08-29T23:48:40.528Z,6.40
2023-08-29T23:51:08.597Z,5.73
2023-08-29T23:53:36.748Z,6.00
2023-08-29T23:56:05.051Z,6.03
2023-08-29T23:58:33.090Z,5.70
